Time;durP1;ratioP1;P1;durP2;ratioP2;P2;SDS_P1;SDS_P2;PMS_P1;PMS_P2;Temp;Humidity;BMP_temperature;BMP_pressure;BME280_temperature;BME280_humidity;BME280_pressure;Samples;Min_cycle;Max_cycle;Signal;HPM_P1;HPM_P2
2021/12/19 00:09:01;;;;;;;14.27;7.95;;;5.50;99.90;;;;;;5043481;28;20535;-53
2021/12/19 00:11:29;;;;;;;14.55;8.43;;;5.50;99.90;;;;;;5058591;28;20393;-52
2021/12/19 00:13:56;;;;;;;14.43;8.43;;;5.60;99.90;;;;;;5035707;28;20029;-58
2021/12/19 00:16:22;;;;;;;13.85;8.98;;;5.60;99.90;;;;;;5040021;28;20092;-54
2021/12/19 00:18:50;;;;;;;12.85;7.63;;;5.60;99.90;;;;;;5043426;28;20028;-52
2021/12/19 00:21:20;;;;;;;13.90;8.45;;;5.60;99.90;;;;;;5045253;28;20129;-52
2021/12/19 00:23:49;;;;;;;13.07;8.35;;;5.60;99.90;;;;;;5040656;28;20524;-50
2021/12/19 00:26:16;;;;;;;13.48;8.38;;;5.60;99.90;;;;;;5032037;28;20033;-51
2021/12/19 00:28:43;;;;;;;14.98;10.18;;;5.60;99.90;;;;;;5031602;28;20505;-57
2021/12/19 00:31:10;;;;;;;14.13;9.02;;;5.60;99.90;;;;;;5033983;28;20104;-53
2021/12/19 00:33:37;;;;;;;15.95;8.20;;;5.60;99.90;;;;;;5030512;28;20426;-52
2021/12/19 00:36:04;;;;;;;14.23;9.10;;;5.60;99.90;;;;;;5032839;28;20041;-54
2021/12/19 00:38:30;;;;;;;15.75;8.85;;;5.60;99.90;;;;;;5028334;28;20037;-61
2021/12/19 00:40:57;;;;;;;12.02;8.10;;;5.60;99.90;;;;;;5046815;28;20111;-53
2021/12/19 00:43:36;;;;;;;10.07;7.13;;;5.50;99.90;;;;;;5035085;28;20061;-55
2021/12/19 00:46:07;;;;;;;14.02;8.50;;;5.50;99.90;;;;;;5034334;28;20029;-55
2021/12/19 00:48:43;;;;;;;15.20;7.90;;;5.50;99.90;;;;;;5030451;28;20045;-54
2021/12/19 00:51:10;;;;;;;16.00;7.97;;;5.40;99.90;;;;;;5032560;28;20282;-57
2021/12/19 00:53:38;;;;;;;15.40;8.02;;;5.40;99.90;;;;;;5035669;28;20029;-59
2021/12/19 00:56:04;;;;;;;10.65;7.07;;;5.40;99.90;;;;;;5030500;28;20033;-55
2021/12/19 00:58:29;;;;;;;16.67;7.45;;;5.40;99.90;;;;;;5028531;28;20111;-57
2021/12/19 01:00:55;;;;;;;13.15;8.40;;;5.50;99.90;;;;;;5044136;28;20366;-52
2021/12/19 01:03:23;;;;;;;12.25;8.68;;;5.50;99.90;;;;;;5033347;28;20033;-47
2021/12/19 01:05:49;;;;;;;12.07;8.00;;;5.40;99.90;;;;;;5048280;28;20126;-58
2021/12/19 01:08:15;;;;;;;14.10;9.05;;;5.40;99.90;;;;;;5072075;28;20128;-58
2021/12/19 01:10:43;;;;;;;15.38;9.70;;;5.30;99.90;;;;;;5042186;28;20121;-56
2021/12/19 01:13:10;;;;;;;15.93;8.88;;;5.40;99.90;;;;;;5033031;28;20038;-55
2021/12/19 01:15:36;;;;;;;13.27;7.28;;;5.40;99.90;;;;;;5032534;28;20037;-54
2021/12/19 01:18:03;;;;;;;14.32;7.53;;;5.30;99.90;;;;;;5034773;28;20132;-55
2021/12/19 01:20:32;;;;;;;15.15;8.15;;;5.20;99.90;;;;;;5030806;28;20276;-55
2021/12/19 01:22:58;;;;;;;13.63;7.78;;;5.20;99.90;;;;;;5030228;28;20113;-54
2021/12/19 01:25:24;;;;;;;13.45;8.02;;;5.30;99.90;;;;;;5032701;28;20037;-57
2021/12/19 01:27:50;;;;;;;13.95;8.38;;;5.30;99.90;;;;;;5031263;28;20362;-50
2021/12/19 01:30:17;;;;;;;13.00;8.55;;;5.30;99.90;;;;;;5030446;28;20386;-48
2021/12/19 01:32:43;;;;;;;14.80;7.90;;;5.30;99.90;;;;;;5032391;28;20029;-57
2021/12/19 01:35:11;;;;;;;14.55;8.23;;;5.20;99.90;;;;;;5032578;28;20021;-50
2021/12/19 01:37:37;;;;;;;12.65;8.10;;;5.30;99.90;;;;;;5032568;28;20041;-56
2021/12/19 01:40:04;;;;;;;13.32;8.02;;;5.30;99.90;;;;;;5033492;28;20029;-52
2021/12/19 01:42:41;;;;;;;12.30;8.18;;;5.30;99.90;;;;;;5031990;28;20117;-60
2021/12/19 01:45:10;;;;;;;14.07;8.23;;;5.30;99.90;;;;;;5031623;28;20034;-57
2021/12/19 01:47:36;;;;;;;13.23;7.65;;;5.40;99.90;;;;;;5029180;28;20045;-55
2021/12/19 01:50:05;;;;;;;15.60;8.50;;;5.40;99.90;;;;;;5034651;28;20084;-55
2021/12/19 01:52:31;;;;;;;13.05;8.10;;;5.40;99.90;;;;;;5029660;28;20071;-53
2021/12/19 01:54:57;;;;;;;15.18;8.52;;;5.30;99.90;;;;;;5033391;28;20473;-52
2021/12/19 01:57:25;;;;;;;14.23;7.95;;;5.40;99.90;;;;;;5029749;28;20504;-52
2021/12/19 01:59:54;;;;;;;16.55;9.35;;;5.40;99.90;;;;;;5028441;28;20069;-53
2021/12/19 02:02:21;;;;;;;14.02;9.50;;;5.40;99.90;;;;;;5031793;28;20053;-57
2021/12/19 02:04:47;;;;;;;15.50;9.13;;;5.40;99.90;;;;;;5034310;28;20065;-52
2021/12/19 02:07:13;;;;;;;14.05;8.60;;;5.40;99.90;;;;;;5029186;28;20040;-52
2021/12/19 02:09:43;;;;;;;18.60;8.95;;;5.40;99.90;;;;;;5028527;28;20021;-55
2021/12/19 02:12:09;;;;;;;16.00;9.77;;;5.40;99.90;;;;;;5032085;28;20057;-49
2021/12/19 02:14:35;;;;;;;14.13;8.65;;;5.30;99.90;;;;;;5029482;28;20495;-53
2021/12/19 02:17:01;;;;;;;14.05;8.77;;;5.30;99.90;;;;;;5032435;28;20045;-52
2021/12/19 02:19:29;;;;;;;14.60;8.50;;;5.30;99.90;;;;;;5027435;28;20048;-52
2021/12/19 02:21:55;;;;;;;12.88;8.13;;;5.20;99.90;;;;;;5031133;28;20025;-55
2021/12/19 02:24:21;;;;;;;14.63;8.55;;;5.20;99.90;;;;;;5042884;28;20382;-54
2021/12/19 02:26:47;;;;;;;13.18;8.35;;;5.20;99.90;;;;;;5033506;28;20037;-56
2021/12/19 02:29:13;;;;;;;12.20;8.32;;;5.20;99.90;;;;;;5022210;28;20045;-49
2021/12/19 02:31:39;;;;;;;14.30;8.00;;;5.30;99.90;;;;;;5031771;28;20416;-53
2021/12/19 02:34:13;;;;;;;11.90;6.97;;;5.30;99.90;;;;;;5028520;28;20033;-52
2021/12/19 02:50:08;;;;;;;12.38;7.97;;;5.40;99.90;;;;;;5029374;28;20036;-53
2021/12/19 02:52:34;;;;;;;12.93;7.57;;;5.40;99.90;;;;;;5027976;28;20052;-55
2021/12/19 02:54:59;;;;;;;8.75;5.75;;;5.40;99.90;;;;;;5010080;28;20071;-55
2021/12/19 02:57:25;;;;;;;23.45;11.63;;;5.40;99.90;;;;;;5031085;28;20037;-54
2021/12/19 02:59:51;;;;;;;13.32;8.32;;;5.40;99.90;;;;;;5027041;28;20029;-50
2021/12/19 03:02:18;;;;;;;11.27;8.10;;;5.40;99.90;;;;;;5025510;28;20067;-54
2021/12/19 03:04:52;;;;;;;13.52;8.15;;;5.40;99.90;;;;;;5031117;28;20087;-49
2021/12/19 03:07:19;;;;;;;14.00;8.85;;;5.50;99.90;;;;;;5013244;28;20045;-51
2021/12/19 03:10:31;;;;;;;16.20;8.70;;;5.40;99.90;;;;;;5027735;28;20378;-56
2021/12/19 03:13:12;;;;;;;11.55;6.68;;;5.40;99.90;;;;;;5026236;28;20152;-53
2021/12/19 03:18:26;;;;;;;16.10;8.35;;;5.40;99.90;;;;;;5026655;28;20061;-51
2021/12/19 03:20:52;;;;;;;16.00;8.38;;;5.40;99.90;;;;;;5028905;28;20022;-51
2021/12/19 03:23:17;;;;;;;18.05;9.23;;;5.50;99.90;;;;;;5029837;28;20037;-49
2021/12/19 03:25:44;;;;;;;15.32;8.95;;;5.40;99.90;;;;;;5029566;28;20083;-51
2021/12/19 03:28:12;;;;;;;14.95;9.60;;;5.50;99.90;;;;;;5027408;28;20081;-49
2021/12/19 03:30:39;;;;;;;16.77;10.93;;;5.50;99.90;;;;;;5030889;28;20026;-51
2021/12/19 03:33:07;;;;;;;13.43;9.00;;;5.40;99.90;;;;;;5030243;28;20099;-54
2021/12/19 03:35:33;;;;;;;13.63;8.35;;;5.50;99.90;;;;;;5030238;28;20113;-50
2021/12/19 03:38:02;;;;;;;15.50;10.10;;;5.60;99.90;;;;;;5026654;28;20041;-51
2021/12/19 03:40:43;;;;;;;20.17;10.90;;;5.60;99.90;;;;;;5025365;28;20041;-53
2021/12/19 03:43:15;;;;;;;27.60;14.15;;;5.60;99.90;;;;;;5028711;28;20444;-54
2021/12/19 03:45:43;;;;;;;21.80;12.07;;;5.60;99.90;;;;;;5026543;28;20049;-52
2021/12/19 03:48:12;;;;;;;17.08;10.23;;;5.70;99.90;;;;;;5029856;28;20050;-51
2021/12/19 03:50:43;;;;;;;17.30;9.63;;;5.70;99.90;;;;;;5028315;28;20037;-52
2021/12/19 03:53:09;;;;;;;13.02;8.80;;;5.70;99.90;;;;;;5028953;28;20512;-55
2021/12/19 03:55:35;;;;;;;16.05;8.85;;;5.70;99.90;;;;;;5030395;28;20061;-52
2021/12/19 03:58:02;;;;;;;23.33;12.52;;;5.80;99.90;;;;;;5039893;28;20041;-54
2021/12/19 04:00:31;;;;;;;28.75;16.80;;;5.80;99.90;;;;;;5028467;28;20037;-52
2021/12/19 04:03:00;;;;;;;19.23;11.02;;;5.80;99.90;;;;;;5026332;28;20496;-52
2021/12/19 04:05:27;;;;;;;14.90;9.57;;;5.80;99.90;;;;;;5034092;28;20069;-57
2021/12/19 04:07:54;;;;;;;14.82;8.90;;;5.80;99.90;;;;;;4994268;28;20041;-49
2021/12/19 04:10:21;;;;;;;15.10;10.88;;;5.80;99.90;;;;;;5034553;28;20481;-50
2021/12/19 04:12:48;;;;;;;17.90;11.95;;;5.80;99.90;;;;;;5033689;28;20362;-52
2021/12/19 04:15:14;;;;;;;12.90;8.15;;;5.90;99.90;;;;;;5033797;28;20756;-53
2021/12/19 04:17:40;;;;;;;10.82;7.97;;;5.80;99.90;;;;;;5030553;28;20512;-51
2021/12/19 04:20:08;;;;;;;13.88;9.90;;;5.90;99.90;;;;;;5031910;28;20034;-53
2021/12/19 04:22:34;;;;;;;42.25;24.80;;;5.90;99.90;;;;;;5034175;28;20029;-51
2021/12/19 04:24:59;;;;;;;22.75;13.25;;;5.90;99.90;;;;;;5048799;28;20407;-52
2021/12/19 04:27:25;;;;;;;19.95;10.80;;;5.90;99.90;;;;;;5035747;28;20365;-56
2021/12/19 04:29:53;;;;;;;22.50;12.73;;;5.90;99.90;;;;;;5032340;28;20021;-52
2021/12/19 04:32:25;;;;;;;15.98;10.05;;;6.00;99.90;;;;;;5032596;28;20412;-50
2021/12/19 04:34:50;;;;;;;17.70;8.80;;;6.10;99.90;;;;;;5032587;28;20034;-53
2021/12/19 04:40:23;;;;;;;13.82;7.55;;;6.10;99.90;;;;;;5035211;28;20052;-51
2021/12/19 05:15:25;;;;;;;12.93;7.55;;;6.20;99.90;;;;;;5032618;28;20091;-56
2021/12/19 05:17:52;;;;;;;14.00;8.13;;;6.30;99.90;;;;;;5030414;28;20535;-55
2021/12/19 05:20:22;;;;;;;10.82;7.20;;;6.30;99.90;;;;;;5032251;28;20036;-49
2021/12/19 05:22:50;;;;;;;11.27;7.82;;;6.40;99.90;;;;;;5014094;28;20073;-53
2021/12/19 05:25:20;;;;;;;13.60;8.05;;;6.40;99.90;;;;;;4964466;28;20125;-52
2021/12/19 05:27:51;;;;;;;10.48;6.85;;;6.40;99.90;;;;;;5031290;28;20401;-48
2021/12/19 05:30:18;;;;;;;10.93;7.53;;;6.40;99.90;;;;;;5033716;28;20064;-54
2021/12/19 05:32:45;;;;;;;10.68;7.18;;;6.50;99.90;;;;;;5036730;28;20078;-53
2021/12/19 05:35:16;;;;;;;10.98;7.07;;;6.60;99.90;;;;;;5030371;28;20556;-54
2021/12/19 05:45:55;;;;;;;10.90;7.15;;;6.60;99.90;;;;;;5035345;28;20717;-50
2021/12/19 05:48:21;;;;;;;13.15;7.88;;;6.50;99.90;;;;;;5026092;28;20124;-49
2021/12/19 05:50:47;;;;;;;11.98;7.43;;;6.60;99.90;;;;;;5032004;28;20469;-48
2021/12/19 05:53:13;;;;;;;11.02;7.70;;;6.60;99.90;;;;;;5027949;28;20113;-52
2021/12/19 05:55:40;;;;;;;12.57;8.30;;;6.60;99.90;;;;;;5024394;28;20084;-45
2021/12/19 05:58:06;;;;;;;11.20;7.15;;;6.60;99.90;;;;;;5032504;28;20481;-51
2021/12/19 06:00:32;;;;;;;11.75;8.23;;;6.60;99.90;;;;;;5030007;28;20044;-54
2021/12/19 06:03:00;;;;;;;12.60;8.30;;;6.60;99.90;;;;;;5029437;28;20037;-51
2021/12/19 06:05:26;;;;;;;10.35;7.82;;;6.60;99.90;;;;;;5038513;28;20096;-54
2021/12/19 06:07:51;;;;;;;13.15;8.77;;;6.70;99.90;;;;;;5034154;28;20523;-53
2021/12/19 06:10:17;;;;;;;11.93;7.90;;;6.70;99.90;;;;;;5035423;28;20036;-51
2021/12/19 06:12:43;;;;;;;13.57;9.18;;;6.70;99.90;;;;;;5031683;28;20456;-54
2021/12/19 06:15:10;;;;;;;13.07;9.73;;;6.60;99.90;;;;;;5028980;28;20601;-46
2021/12/19 06:17:39;;;;;;;14.68;10.25;;;6.60;99.90;;;;;;5035094;28;20071;-50
2021/12/19 06:20:05;;;;;;;21.42;13.02;;;6.60;99.90;;;;;;5030952;28;20533;-48
2021/12/19 06:22:31;;;;;;;20.02;11.85;;;6.60;99.90;;;;;;5035616;28;20509;-53
2021/12/19 06:24:57;;;;;;;15.10;9.63;;;6.60;99.90;;;;;;5023965;28;20033;-52
2021/12/19 06:27:22;;;;;;;13.95;8.45;;;6.60;99.90;;;;;;5019960;28;20049;-50
2021/12/19 06:29:49;;;;;;;14.25;8.68;;;6.60;99.90;;;;;;5029416;28;20025;-45
2021/12/19 06:32:17;;;;;;;10.32;7.93;;;6.70;99.90;;;;;;5026070;28;20085;-46
2021/12/19 06:34:43;;;;;;;15.52;8.18;;;6.60;99.90;;;;;;5032598;28;20505;-52
2021/12/19 06:37:10;;;;;;;12.25;8.32;;;6.60;99.90;;;;;;5026991;28;20115;-49
2021/12/19 06:39:38;;;;;;;12.55;8.38;;;6.70;99.90;;;;;;5025911;28;20064;-50
2021/12/19 06:42:06;;;;;;;13.15;7.78;;;6.70;99.90;;;;;;5026878;28;20034;-49
2021/12/19 06:44:32;;;;;;;11.43;7.43;;;6.70;99.90;;;;;;5028200;28;20037;-49
2021/12/19 06:46:59;;;;;;;14.00;8.75;;;6.70;99.90;;;;;;5028785;28;20026;-53
2021/12/19 06:49:25;;;;;;;19.38;9.75;;;6.60;99.90;;;;;;5026500;28;20544;-50
2021/12/19 06:51:50;;;;;;;11.93;8.55;;;6.70;99.90;;;;;;5029519;28;20117;-51
2021/12/19 06:54:16;;;;;;;13.52;9.07;;;6.70;99.90;;;;;;5025994;28;20049;-51
2021/12/19 06:56:42;;;;;;;14.18;8.95;;;6.70;99.90;;;;;;5028850;28;20033;-47
2021/12/19 06:59:07;;;;;;;12.90;8.18;;;6.80;99.90;;;;;;5027037;28;20056;-54
2021/12/19 07:01:35;;;;;;;12.68;8.07;;;6.80;99.90;;;;;;5028878;28;20041;-52
2021/12/19 07:04:01;;;;;;;16.38;9.73;;;6.80;99.90;;;;;;5040884;28;20041;-52
2021/12/19 07:06:27;;;;;;;15.55;8.40;;;6.80;99.90;;;;;;5024686;28;20096;-51
2021/12/19 07:08:52;;;;;;;15.02;8.98;;;6.60;99.90;;;;;;5012062;28;20045;-50
2021/12/19 07:11:18;;;;;;;13.07;8.23;;;6.60;99.90;;;;;;5023499;28;20127;-53
2021/12/19 07:13:44;;;;;;;12.55;8.10;;;6.60;99.90;;;;;;5023735;28;20120;-48
2021/12/19 07:16:10;;;;;;;12.98;8.55;;;6.50;99.90;;;;;;5023957;28;20057;-49
2021/12/19 07:18:36;;;;;;;13.35;9.60;;;6.60;99.90;;;;;;5010253;28;20045;-50
2021/12/19 07:21:04;;;;;;;12.75;8.88;;;6.60;99.90;;;;;;5027317;28;20603;-49
2021/12/19 07:23:30;;;;;;;14.85;8.88;;;6.80;99.90;;;;;;5025983;28;20068;-52
2021/12/19 07:25:57;;;;;;;12.15;8.55;;;6.80;99.90;;;;;;5026221;28;20037;-50
2021/12/19 07:28:22;;;;;;;13.30;9.32;;;6.70;99.90;;;;;;5026327;28;20576;-50
2021/12/19 07:30:49;;;;;;;14.90;9.10;;;6.80;99.90;;;;;;4986152;28;20038;-53
2021/12/19 07:33:14;;;;;;;16.88;9.88;;;6.80;99.90;;;;;;5030148;28;20029;-48
2021/12/19 07:35:45;;;;;;;15.77;9.90;;;6.90;99.90;;;;;;5038850;28;20037;-54
2021/12/19 07:38:16;;;;;;;16.52;9.15;;;6.90;99.90;;;;;;5037865;28;20041;-53
2021/12/19 07:40:46;;;;;;;16.20;10.32;;;6.90;99.90;;;;;;5044376;28;20045;-49
2021/12/19 07:43:13;;;;;;;19.08;9.32;;;6.90;99.90;;;;;;5041949;28;20076;-46
2021/12/19 07:45:39;;;;;;;16.27;10.00;;;6.80;99.90;;;;;;5041725;28;20473;-49
2021/12/19 07:48:05;;;;;;;16.98;9.93;;;6.90;99.90;;;;;;5057184;28;20132;-50
2021/12/19 07:50:32;;;;;;;16.20;9.85;;;6.90;99.90;;;;;;5057126;28;20049;-50
2021/12/19 07:52:58;;;;;;;15.77;10.07;;;6.90;99.90;;;;;;4995318;28;20030;-48
2021/12/19 07:55:24;;;;;;;16.58;10.35;;;6.90;99.90;;;;;;5027413;28;20033;-50
2021/12/19 07:57:50;;;;;;;14.07;9.50;;;7.00;99.90;;;;;;5051855;28;20483;-52
2021/12/19 08:00:19;;;;;;;14.20;9.45;;;7.00;99.90;;;;;;5036554;28;20057;-48
2021/12/19 08:02:45;;;;;;;15.02;10.52;;;7.00;99.90;;;;;;5045094;28;20038;-47
2021/12/19 08:05:12;;;;;;;17.10;11.75;;;7.10;99.90;;;;;;5032702;28;20044;-49
2021/12/19 08:07:39;;;;;;;14.65;9.70;;;7.10;99.90;;;;;;5026523;28;20041;-53
2021/12/19 08:12:33;;;;;;;13.93;8.88;;;7.30;99.90;;;;;;5027571;28;20033;-51
2021/12/19 08:14:59;;;;;;;15.18;9.85;;;7.30;99.90;;;;;;5030081;28;20767;-51
2021/12/19 08:17:26;;;;;;;11.30;7.57;;;7.50;99.90;;;;;;5026859;28;20536;-48
2021/12/19 08:19:52;;;;;;;14.07;10.40;;;7.60;99.90;;;;;;5026018;28;20440;-51
2021/12/19 08:22:19;;;;;;;13.05;8.88;;;7.70;99.90;;;;;;5026349;28;20033;-51
2021/12/19 08:24:47;;;;;;;15.60;10.63;;;7.80;99.90;;;;;;5030759;28;20030;-49
2021/12/19 08:27:13;;;;;;;12.98;8.63;;;7.80;99.90;;;;;;5029974;28;20048;-53
2021/12/19 08:29:38;;;;;;;13.95;9.38;;;7.80;99.90;;;;;;5031251;28;20116;-47
2021/12/19 08:32:05;;;;;;;16.00;10.68;;;7.90;99.90;;;;;;5043839;28;20048;-49
2021/12/19 08:34:30;;;;;;;11.90;8.35;;;8.30;99.90;;;;;;5049303;28;20106;-50
2021/12/19 08:36:56;;;;;;;12.30;8.15;;;8.50;99.90;;;;;;5012082;28;20478;-50
2021/12/19 08:39:22;;;;;;;12.05;8.20;;;8.70;99.90;;;;;;5045939;28;20038;-52
2021/12/19 08:41:48;;;;;;;11.25;8.30;;;8.90;99.90;;;;;;5027881;28;20040;-48
2021/12/19 08:44:14;;;;;;;11.07;7.10;;;9.40;99.90;;;;;;5029960;28;20470;-47
2021/12/19 08:46:41;;;;;;;12.18;8.63;;;9.90;99.90;;;;;;5026816;28;20025;-51
2021/12/19 08:49:09;;;;;;;16.60;12.65;;;10.20;99.90;;;;;;5031267;28;20045;-50
2021/12/19 08:51:35;;;;;;;10.98;7.03;;;11.20;99.90;;;;;;5024704;28;20042;-52
2021/12/19 08:54:01;;;;;;;17.30;15.60;;;11.90;99.90;;;;;;5041662;28;20116;-54
2021/12/19 09:09:48;;;;;;;68.50;64.68;;;16.50;93.10;;;;;;5061562;28;20803;-52
2021/12/19 09:12:15;;;;;;;7.72;6.22;;;17.40;92.80;;;;;;5055349;28;20067;-51
2021/12/19 09:14:41;;;;;;;9.50;6.25;;;15.70;91.70;;;;;;5053089;28;20033;-53
2021/12/19 09:17:07;;;;;;;8.15;6.40;;;14.50;91.90;;;;;;5052466;28;20033;-49
2021/12/19 09:19:33;;;;;;;21.05;19.48;;;13.70;92.80;;;;;;5056641;28;20025;-50
2021/12/19 09:21:59;;;;;;;11.52;8.40;;;14.20;93.70;;;;;;5066092;28;20119;-50
2021/12/19 09:24:25;;;;;;;27.58;25.98;;;14.40;93.00;;;;;;5068852;28;20151;-52
2021/12/19 09:26:51;;;;;;;19.17;17.58;;;14.90;92.00;;;;;;5057496;28;20033;-52
2021/12/19 09:29:17;;;;;;;32.10;30.00;;;16.10;91.50;;;;;;5061863;28;20050;-52
2021/12/19 09:31:43;;;;;;;74.82;71.07;;;16.30;91.80;;;;;;5062907;28;20419;-55
2021/12/19 09:34:09;;;;;;;14.80;13.60;;;17.30;90.40;;;;;;5056446;28;20033;-56
2021/12/19 09:36:35;;;;;;;59.17;56.13;;;16.70;89.00;;;;;;5052955;28;20033;-59
2021/12/19 09:39:03;;;;;;;8.27;5.65;;;17.60;86.40;;;;;;5052812;28;20036;-53
2021/12/19 09:41:34;;;;;;;7.53;5.63;;;15.80;87.80;;;;;;5057018;28;20063;-55
2021/12/19 09:44:05;;;;;;;10.65;6.60;;;14.90;89.50;;;;;;5062615;28;20040;-52
2021/12/19 09:46:36;;;;;;;24.55;22.95;;;14.20;89.80;;;;;;5056116;28;20048;-59
2021/12/19 09:49:04;;;;;;;16.95;15.55;;;;;;;;;;5058549;28;20032;-54
2021/12/19 09:51:30;;;;;;;43.70;40.88;;;14.30;90.60;;;;;;5061298;28;20152;-53
2021/12/19 09:53:56;;;;;;;27.70;25.55;;;15.30;91.50;;;;;;5060025;28;20508;-52
2021/12/19 09:56:21;;;;;;;47.40;44.53;;;15.70;90.30;;;;;;5054850;28;20021;-57
2021/12/19 09:58:50;;;;;;;20.13;18.13;;;14.60;89.20;;;;;;5054998;28;20053;-58
2021/12/19 10:01:16;;;;;;;12.13;8.57;;;14.90;91.30;;;;;;5059740;28;20114;-58
2021/12/19 10:03:42;;;;;;;20.65;18.95;;;14.90;90.70;;;;;;5055257;28;20041;-60
2021/12/19 10:06:12;;;;;;;42.50;39.80;;;14.50;90.70;;;;;;5067345;28;20037;-56
2021/12/19 10:08:39;;;;;;;35.53;33.13;;;15.20;90.80;;;;;;5062317;28;20056;-57
2021/12/19 10:11:13;;;;;;;24.52;18.65;;;15.20;90.50;;;;;;5045932;28;20029;-56
2021/12/19 10:13:39;;;;;;;60.28;56.85;;;15.80;90.40;;;;;;5043648;28;20091;-59
2021/12/19 10:16:26;;;;;;;21.02;19.52;;;16.10;87.60;;;;;;5044884;28;20427;-54
2021/12/19 10:18:54;;;;;;;21.38;19.75;;;15.50;88.10;;;;;;5042201;28;20373;-54
2021/12/19 10:21:21;;;;;;;15.43;13.82;;;15.50;88.40;;;;;;5045560;28;20060;-55
2021/12/19 10:23:47;;;;;;;15.13;12.13;;;15.60;90.10;;;;;;5053827;28;20155;-61
2021/12/19 10:26:14;;;;;;;15.45;10.68;;;15.20;89.30;;;;;;5042859;28;20029;-57
2021/12/19 10:28:55;;;;;;;35.25;32.75;;;14.40;90.00;;;;;;5044209;28;20040;-59
2021/12/19 10:31:21;;;;;;;22.67;20.88;;;15.60;90.00;;;;;;5050117;28;20121;-51
2021/12/19 10:33:48;;;;;;;66.80;42.75;;;15.70;89.00;;;;;;5053010;28;20033;-61
2021/12/19 10:36:14;;;;;;;38.83;23.50;;;15.70;87.70;;;;;;5031232;28;20067;-56
2021/12/19 10:38:48;;;;;;;29.77;26.48;;;15.50;88.80;;;;;;5044635;28;20167;-51
2021/12/19 10:41:17;;;;;;;24.40;18.65;;;16.20;87.80;;;;;;5043661;28;20111;-52
2021/12/19 10:43:58;;;;;;;32.03;20.05;;;16.30;88.50;;;;;;5041399;28;20096;-50
2021/12/19 10:46:32;;;;;;;32.50;14.23;;;16.70;86.70;;;;;;5000507;28;20126;-51
2021/12/19 10:48:59;;;;;;;10.32;7.50;;;15.10;87.20;;;;;;5037280;28;20044;-50
2021/12/19 10:51:26;;;;;;;23.10;16.00;;;15.10;85.60;;;;;;5040169;28;20033;-51
2021/12/19 10:53:54;;;;;;;26.27;17.88;;;15.60;87.10;;;;;;5041796;28;20041;-52
2021/12/19 10:56:29;;;;;;;21.45;13.82;;;15.60;86.10;;;;;;5039278;28;20090;-53
2021/12/19 10:58:58;;;;;;;22.08;15.18;;;16.10;85.50;;;;;;5046612;28;20052;-52
2021/12/19 11:01:31;;;;;;;34.67;21.52;;;15.60;86.20;;;;;;5037024;28;20028;-51
2021/12/19 11:04:08;;;;;;;11.70;10.73;;;16.40;84.10;;;;;;5010013;28;20041;-51
2021/12/19 11:06:34;;;;;;;26.42;16.45;;;16.20;84.00;;;;;;5046285;28;20469;-51
2021/12/19 11:09:04;;;;;;;70.28;33.30;;;16.20;84.60;;;;;;5040173;28;20049;-53
2021/12/19 11:11:35;;;;;;;9.13;8.23;;;16.30;83.00;;;;;;5040505;28;20107;-52
2021/12/19 11:14:02;;;;;;;19.52;13.70;;;16.50;82.00;;;;;;5042065;28;20118;-53
2021/12/19 11:16:28;;;;;;;109.22;44.25;;;16.20;82.20;;;;;;5039246;28;20060;-53
2021/12/19 11:18:54;;;;;;;22.27;14.98;;;16.70;83.20;;;;;;5043125;28;20555;-53
2021/12/19 11:21:20;;;;;;;49.38;23.33;;;;;;;;;;5036538;28;20029;-51
2021/12/19 11:23:46;;;;;;;13.02;11.10;;;16.60;80.30;;;;;;5040654;28;20046;-53
2021/12/19 11:26:13;;;;;;;76.63;29.33;;;16.80;80.90;;;;;;5047095;28;20025;-51
2021/12/19 11:28:39;;;;;;;14.30;12.15;;;16.60;81.40;;;;;;5059523;28;20038;-52
2021/12/19 11:31:05;;;;;;;11.73;10.50;;;16.90;81.70;;;;;;5048994;28;20102;-51
2021/12/19 11:34:00;;;;;;;38.25;18.13;;;16.90;82.20;;;;;;5049193;28;20029;-52
2021/12/19 11:36:30;;;;;;;48.28;22.08;;;17.10;81.30;;;;;;5046557;28;20033;-52
2021/12/19 11:38:58;;;;;;;23.92;14.60;;;17.10;80.70;;;;;;5046798;28;20396;-50
2021/12/19 11:41:24;;;;;;;26.90;17.50;;;16.80;81.80;;;;;;5042570;28;20026;-50
2021/12/19 11:43:54;;;;;;;69.85;29.50;;;17.00;80.60;;;;;;5044140;28;20030;-51
2021/12/19 11:46:50;;;;;;;27.15;15.50;;;17.10;80.70;;;;;;5046074;28;20041;-52
2021/12/19 11:49:21;;;;;;;109.80;40.13;;;16.20;81.90;;;;;;5045233;28;20616;-52
2021/12/19 11:51:48;;;;;;;107.75;37.42;;;16.30;83.00;;;;;;5045743;28;20036;-53
2021/12/19 11:54:16;;;;;;;12.98;10.27;;;15.50;85.00;;;;;;5044628;28;20056;-51
2021/12/19 11:57:05;;;;;;;11.52;10.43;;;16.80;83.60;;;;;;5042230;28;20112;-53
2021/12/19 11:59:30;;;;;;;29.58;15.38;;;17.60;82.90;;;;;;5045965;28;20067;-51
2021/12/19 12:02:25;;;;;;;20.42;11.82;;;16.40;82.70;;;;;;5042689;28;20056;-50
2021/12/19 12:05:13;;;;;;;84.13;28.60;;;16.10;82.70;;;;;;5037383;28;20128;-51
2021/12/19 12:08:07;;;;;;;22.65;12.63;;;16.50;81.90;;;;;;5047206;28;20420;-50
2021/12/19 12:10:51;;;;;;;11.48;8.23;;;15.60;83.30;;;;;;5040278;28;20112;-51
2021/12/19 12:13:33;;;;;;;45.78;16.88;;;16.40;83.20;;;;;;5043751;28;20033;-52
2021/12/19 12:16:33;;;;;;;28.33;13.23;;;15.30;84.10;;;;;;5060932;28;20041;-52
2021/12/19 12:19:01;;;;;;;14.00;8.77;;;15.50;85.00;;;;;;5046225;28;20037;-51
2021/12/19 12:21:33;;;;;;;14.65;8.32;;;15.20;85.50;;;;;;5038946;28;20079;-50
2021/12/19 12:24:12;;;;;;;15.70;9.48;;;15.70;83.70;;;;;;5049838;28;20029;-51
2021/12/19 12:26:51;;;;;;;35.85;14.90;;;15.40;84.90;;;;;;5046587;28;20488;-55
2021/12/19 12:29:17;;;;;;;32.28;14.13;;;15.00;83.90;;;;;;5043233;28;20160;-55
2021/12/19 12:31:45;;;;;;;11.32;7.63;;;14.70;84.80;;;;;;5037647;28;20056;-54
2021/12/19 12:34:13;;;;;;;32.78;13.23;;;15.10;85.80;;;;;;5048221;28;20033;-54
2021/12/19 12:36:40;;;;;;;11.85;8.45;;;15.40;83.60;;;;;;5048711;28;20037;-54
2021/12/19 12:39:11;;;;;;;18.75;12.70;;;15.50;85.20;;;;;;5045789;28;20037;-53
2021/12/19 12:44:10;;;;;;;12.27;8.23;;;16.00;83.50;;;;;;5041765;28;20028;-50
2021/12/19 12:46:37;;;;;;;42.27;19.07;;;15.80;84.70;;;;;;5054565;28;20493;-51
2021/12/19 12:49:04;;;;;;;18.60;10.52;;;16.20;85.80;;;;;;5045255;28;20388;-51
2021/12/19 12:51:40;;;;;;;30.77;15.88;;;15.50;84.50;;;;;;5041993;28;20064;-54
2021/12/19 12:54:10;;;;;;;18.00;8.70;;;15.30;84.20;;;;;;5043270;28;20025;-51
2021/12/19 12:56:43;;;;;;;19.33;8.95;;;;;;;;;;5044780;28;20036;-53
2021/12/19 12:59:08;;;;;;;11.75;7.63;;;15.90;84.70;;;;;;5050335;28;20059;-52
2021/12/19 13:01:36;;;;;;;11.20;7.53;;;16.10;84.10;;;;;;5053741;28;20473;-51
2021/12/19 13:04:21;;;;;;;10.95;7.75;;;16.20;84.80;;;;;;5049469;28;20058;-49
2021/12/19 13:06:55;;;;;;;12.63;7.80;;;16.40;84.60;;;;;;5044049;28;20037;-50
2021/12/19 13:09:31;;;;;;;18.83;11.40;;;16.40;84.80;;;;;;5045984;28;20045;-50
2021/12/19 13:11:57;;;;;;;15.98;10.65;;;16.10;84.50;;;;;;5060866;28;20037;-49
2021/12/19 13:14:26;;;;;;;11.27;8.57;;;15.20;86.50;;;;;;5047461;28;20171;-47
2021/12/19 13:16:58;;;;;;;11.77;8.25;;;15.50;86.70;;;;;;5049755;28;20030;-49
2021/12/19 13:19:33;;;;;;;12.57;8.45;;;;;;;;;;5055956;28;20516;-50
2021/12/19 13:21:59;;;;;;;13.73;8.95;;;15.60;86.30;;;;;;5046404;28;20032;-49
2021/12/19 13:24:25;;;;;;;20.95;13.98;;;15.20;85.30;;;;;;5040066;28;20021;-48
2021/12/19 13:27:11;;;;;;;333.50;303.13;;;15.20;87.20;;;;;;5044964;28;20025;-48
2021/12/19 13:29:39;;;;;;;15.82;8.55;;;15.60;85.90;;;;;;5037905;28;20033;-49
2021/12/19 13:32:23;;;;;;;12.23;8.15;;;15.00;86.70;;;;;;5013925;28;20076;-51
2021/12/19 13:34:50;;;;;;;13.82;8.95;;;14.80;88.70;;;;;;5038785;28;20030;-51
2021/12/19 13:37:17;;;;;;;14.38;10.32;;;14.70;88.10;;;;;;5003674;28;20041;-49
2021/12/19 13:39:48;;;;;;;16.33;10.25;;;14.60;89.00;;;;;;5044715;28;20048;-49
2021/12/19 13:42:14;;;;;;;16.05;9.98;;;14.60;89.20;;;;;;5048737;28;20074;-50
2021/12/19 13:44:42;;;;;;;15.30;9.55;;;15.10;89.00;;;;;;5052598;28;20036;-51
2021/12/19 13:47:23;;;;;;;14.50;8.77;;;14.80;88.30;;;;;;5047661;28;20033;-51
2021/12/19 13:49:49;;;;;;;15.23;9.80;;;14.30;89.50;;;;;;5047608;28;20029;-50
2021/12/19 13:52:15;;;;;;;12.13;9.43;;;14.40;89.40;;;;;;5050359;28;20099;-51
2021/12/19 13:54:41;;;;;;;14.82;9.90;;;14.30;89.60;;;;;;5043731;28;20586;-51
2021/12/19 13:57:27;;;;;;;15.90;10.43;;;14.20;90.10;;;;;;5048337;28;20029;-52
2021/12/19 13:59:53;;;;;;;22.33;11.65;;;14.20;90.30;;;;;;5046752;28;20249;-48
2021/12/19 14:02:18;;;;;;;16.92;10.57;;;13.90;90.50;;;;;;5051369;28;20397;-49
2021/12/19 14:04:44;;;;;;;16.00;10.68;;;13.80;90.60;;;;;;5044173;28;20028;-50
2021/12/19 14:07:15;;;;;;;23.77;12.73;;;13.50;90.90;;;;;;5043788;28;20040;-49
2021/12/19 14:09:43;;;;;;;15.85;11.30;;;13.40;91.10;;;;;;5046806;28;20506;-51
2021/12/19 14:12:23;;;;;;;17.63;12.15;;;13.20;91.30;;;;;;5050718;28;20029;-50
2021/12/19 14:14:50;;;;;;;18.15;12.00;;;13.10;91.50;;;;;;5047114;28;20088;-50